Time;durP1;ratioP1;P1;durP2;ratioP2;P2;SDS_P1;SDS_P2;PMS_P1;PMS_P2;Temp;Humidity;BMP_temperature;BMP_pressure;BME280_temperature;BME280_humidity;BME280_pressure;Samples;Min_cycle;Max_cycle;Signal;HPM_P1;HPM_P2
2022/08/03 00:02:00;;;;;;;5.40;4.63;;;;;;;;;;5074090;28;20016;-72
2022/08/03 00:04:26;;;;;;;6.50;5.57;;;;;;;;;;5074165;28;20028;-73
2022/08/03 00:06:52;;;;;;;5.45;4.78;;;;;;;;;;5073985;28;20395;-72
2022/08/03 00:09:18;;;;;;;5.43;4.88;;;;;;;;;;5074152;28;20021;-72
2022/08/03 00:11:45;;;;;;;6.20;4.80;;;;;;;;;;5073996;28;20024;-72
2022/08/03 00:14:11;;;;;;;5.63;4.50;;;;;;;;;;5074073;28;20020;-70
2022/08/03 00:16:37;;;;;;;5.38;4.63;;;;;;;;;;5073900;28;20111;-71
2022/08/03 00:19:03;;;;;;;5.63;4.22;;;;;;;;;;5074025;28;20021;-72
2022/08/03 00:21:29;;;;;;;8.90;7.25;;;;;;;;;;5073929;28;20032;-72
2022/08/03 00:23:56;;;;;;;4.63;4.22;;;;;;;;;;5073703;28;20383;-72
2022/08/03 00:26:22;;;;;;;5.78;4.10;;;;;;;;;;5072572;28;20182;-71
2022/08/03 00:28:48;;;;;;;4.50;3.92;;;;;;;;;;5073670;28;20017;-72
2022/08/03 00:31:14;;;;;;;5.05;4.53;;;;;;;;;;5073487;28;20024;-72
2022/08/03 00:33:41;;;;;;;5.82;4.05;;;;;;;;;;5080501;28;20024;-72
2022/08/03 00:36:07;;;;;;;5.60;4.28;;;;;;;;;;5093530;28;20055;-72
2022/08/03 00:38:33;;;;;;;9.15;4.72;;;;;;;;;;5088542;28;20020;-72
2022/08/03 00:40:59;;;;;;;7.57;4.70;;;;;;;;;;5073374;28;20134;-72
2022/08/03 00:43:26;;;;;;;8.07;4.70;;;;;;;;;;5073519;28;20410;-72
2022/08/03 00:45:53;;;;;;;4.22;3.80;;;;;;;;;;5073245;28;20552;-73
2022/08/03 00:48:20;;;;;;;4.82;4.35;;;;;;;;;;5073280;28;20021;-72
2022/08/03 00:50:47;;;;;;;5.47;4.28;;;;;;;;;;5073355;28;20433;-73
2022/08/03 00:53:13;;;;;;;6.93;4.40;;;;;;;;;;5073236;28;20086;-72
2022/08/03 00:55:42;;;;;;;5.38;3.85;;;;;;;;;;5072985;28;20016;-70
2022/08/03 00:58:10;;;;;;;5.95;3.80;;;;;;;;;;5073182;28;20111;-71
2022/08/03 01:00:39;;;;;;;4.30;3.75;;;;;;;;;;5073341;28;20020;-72
2022/08/03 01:03:10;;;;;;;5.28;4.15;;;;;;;;;;5073054;28;20074;-71
2022/08/03 01:05:36;;;;;;;;;;;;;;;;;;5073236;28;20085;-72
2022/08/03 01:08:11;;;;;;;4.45;4.05;;;;;;;;;;5073127;28;20350;-71
2022/08/03 01:10:52;;;;;;;4.70;3.90;;;;;;;;;;5073233;28;20012;-71
2022/08/03 01:13:34;;;;;;;5.22;4.05;;;;;;;;;;5073084;28;20027;-71
2022/08/03 01:16:04;;;;;;;4.38;3.97;;;;;;;;;;5072946;28;20020;-71
2022/08/03 01:18:41;;;;;;;4.95;4.07;;;;;;;;;;5073197;28;20115;-72
2022/08/03 01:21:13;;;;;;;5.38;4.20;;;;;;;;;;5072842;28;20025;-72
2022/08/03 01:23:59;;;;;;;6.40;4.15;;;;;;;;;;5072996;28;20380;-72
2022/08/03 01:26:51;;;;;;;4.50;4.10;;;;;;;;;;5017992;28;20069;-72
2022/08/03 01:29:17;;;;;;;7.70;4.25;;;;;;;;;;5001110;28;20511;-71
2022/08/03 01:31:54;;;;;;;5.75;4.10;;;;;;;;;;5005535;28;20079;-71
2022/08/03 01:34:22;;;;;;;5.07;4.25;;;;;;;;;;5026905;28;20094;-71
2022/08/03 01:36:53;;;;;;;5.25;3.90;;;;;;;;;;5030207;28;20097;-71
2022/08/03 01:39:19;;;;;;;;;;;;;;;;;;5031105;28;20207;-71
2022/08/03 01:41:50;;;;;;;4.32;3.72;;;;;;;;;;5030369;28;20427;-71
2022/08/03 01:44:17;;;;;;;5.00;4.47;;;;;;;;;;5030426;28;20048;-71
2022/08/03 01:46:43;;;;;;;5.60;4.80;;;;;;;;;;5030318;28;20034;-71
2022/08/03 01:49:10;;;;;;;6.00;4.47;;;;;;;;;;5030450;28;20013;-71
2022/08/03 01:51:41;;;;;;;4.88;4.40;;;;;;;;;;5030337;28;20134;-72
2022/08/03 01:54:09;;;;;;;5.07;4.53;;;;;;;;;;5030637;28;20032;-72
2022/08/03 01:56:36;;;;;;;5.22;4.47;;;;;;;;;;5030219;28;20029;-71
2022/08/03 01:59:03;;;;;;;4.85;4.32;;;;;;;;;;5030287;28;20037;-71
2022/08/03 02:01:33;;;;;;;8.02;4.60;;;;;;;;;;5030470;28;20029;-71
2022/08/03 02:03:59;;;;;;;5.03;4.30;;;;;;;;;;5060107;28;20586;-72
2022/08/03 02:06:26;;;;;;;4.60;4.20;;;;;;;;;;5072337;28;20055;-72
2022/08/03 02:08:53;;;;;;;5.10;4.60;;;;;;;;;;5072329;28;20021;-71
2022/08/03 02:11:19;;;;;;;4.72;4.07;;;;;;;;;;5072433;28;20483;-72
2022/08/03 02:13:46;;;;;;;8.95;4.63;;;;;;;;;;5072254;28;20024;-71
2022/08/03 02:16:13;;;;;;;5.85;4.38;;;;;;;;;;5072429;28;20023;-72
2022/08/03 02:18:40;;;;;;;5.68;4.25;;;;;;;;;;5072236;28;20048;-73
2022/08/03 02:21:07;;;;;;;4.88;3.95;;;;;;;;;;5072072;28;20078;-73
2022/08/03 02:23:33;;;;;;;4.95;4.45;;;;;;;;;;5072286;28;20040;-73
2022/08/03 02:26:01;;;;;;;6.38;4.30;;;;;;;;;;5071858;28;20024;-73
2022/08/03 02:28:37;;;;;;;5.90;4.55;;;;;;;;;;5072178;28;20024;-72
2022/08/03 02:31:05;;;;;;;4.65;4.07;;;;;;;;;;5071109;28;20020;-72
2022/08/03 02:33:37;;;;;;;6.03;4.38;;;;;;;;;;5077728;28;20482;-73
2022/08/03 02:36:06;;;;;;;5.25;4.30;;;;;;;;;;5079331;28;20041;-72
2022/08/03 02:38:33;;;;;;;6.30;4.40;;;;;;;;;;5071825;28;20027;-72
2022/08/03 02:41:00;;;;;;;4.72;4.32;;;;;;;;;;5072176;28;20016;-72
2022/08/03 02:43:32;;;;;;;5.65;4.28;;;;;;;;;;5072116;28;20020;-73
2022/08/03 02:45:58;;;;;;;7.82;4.18;;;;;;;;;;5071929;28;20071;-72
2022/08/03 02:48:26;;;;;;;5.22;4.38;;;;;;;;;;5071999;28;20020;-73
2022/08/03 02:50:53;;;;;;;5.40;4.30;;;;;;;;;;5074904;28;20145;-73
2022/08/03 02:53:21;;;;;;;6.50;4.38;;;;;;;;;;5075225;28;20023;-73
2022/08/03 02:55:48;;;;;;;4.85;4.30;;;;;;;;;;5075424;28;20012;-72
2022/08/03 02:58:16;;;;;;;7.25;3.90;;;;;;;;;;5075281;28;20597;-72
2022/08/03 03:00:44;;;;;;;5.30;4.00;;;;;;;;;;5075280;28;20391;-73
2022/08/03 03:03:10;;;;;;;6.95;4.40;;;;;;;;;;5075339;28;20052;-72
2022/08/03 03:05:37;;;;;;;5.45;4.40;;;;;;;;;;5075461;28;20107;-72
2022/08/03 03:08:03;;;;;;;5.95;4.18;;;;;;;;;;5075079;28;20033;-72
2022/08/03 03:10:29;;;;;;;5.60;4.88;;;;;;;;;;5075132;28;20106;-73
2022/08/03 03:12:56;;;;;;;5.32;4.38;;;;;;;;;;5075346;28;20050;-72
2022/08/03 03:15:26;;;;;;;5.63;4.32;;;;;;;;;;5075034;28;20021;-72
2022/08/03 03:17:53;;;;;;;7.65;5.30;;;;;;;;;;5075122;28;20020;-72
2022/08/03 03:20:19;;;;;;;4.32;3.92;;;;;;;;;;5074946;28;20020;-72
2022/08/03 03:22:46;;;;;;;7.47;4.45;;;;;;;;;;5074789;28;20025;-72
2022/08/03 03:25:12;;;;;;;6.10;4.35;;;;;;;;;;5075114;28;20075;-72
2022/08/03 03:27:39;;;;;;;5.13;4.63;;;;;;;;;;5074688;28;20036;-72
2022/08/03 03:30:05;;;;;;;5.72;4.40;;;;;;;;;;5075217;28;20097;-73
2022/08/03 03:32:31;;;;;;;6.03;4.53;;;;;;;;;;5074679;28;20058;-73
2022/08/03 03:34:58;;;;;;;7.07;4.63;;;;;;;;;;5088787;28;20025;-72
2022/08/03 03:37:25;;;;;;;7.72;4.88;;;;;;;;;;5074475;28;20029;-72
2022/08/03 03:39:53;;;;;;;5.55;4.38;;;;;;;;;;5074490;28;20028;-73
2022/08/03 03:42:19;;;;;;;6.40;4.50;;;;;;;;;;5074669;28;20036;-71
2022/08/03 03:44:45;;;;;;;6.38;4.43;;;;;;;;;;5072758;28;20387;-71
2022/08/03 03:47:12;;;;;;;5.75;4.80;;;;;;;;;;5074581;28;20119;-71
2022/08/03 03:49:38;;;;;;;5.13;4.13;;;;;;;;;;5074451;28;20021;-70
2022/08/03 03:52:05;;;;;;;5.32;4.25;;;;;;;;;;5074190;28;20016;-71
2022/08/03 03:54:41;;;;;;;7.18;4.68;;;;;;;;;;5074312;28;20021;-72
2022/08/03 03:57:07;;;;;;;6.00;4.45;;;;;;;;;;5074264;28;20043;-71
2022/08/03 03:59:33;;;;;;;8.48;4.85;;;;;;;;;;5074473;28;20029;-71
2022/08/03 04:01:59;;;;;;;5.82;4.32;;;;;;;;;;5074061;28;20020;-72
2022/08/03 04:12:40;;;;;;;5.95;5.10;;;;;;;;;;5074518;28;20176;-71
2022/08/03 04:15:07;;;;;;;5.63;4.80;;;;;;;;;;5073766;28;20070;-72
2022/08/03 04:17:33;;;;;;;7.03;6.32;;;;;;;;;;5073917;28;20038;-72
2022/08/03 04:20:00;;;;;;;6.43;5.18;;;;;;;;;;5073728;28;20107;-72
2022/08/03 04:22:29;;;;;;;7.85;5.00;;;;;;;;;;5073918;28;20469;-73
2022/08/03 04:25:04;;;;;;;7.55;4.40;;;;;;;;;;5073753;28;20079;-73
2022/08/03 04:27:33;;;;;;;6.28;4.63;;;;;;;;;;5073634;28;20036;-72
2022/08/03 04:30:01;;;;;;;7.47;5.68;;;;;;;;;;5073460;28;20023;-72
2022/08/03 04:32:27;;;;;;;17.85;14.23;;;;;;;;;;5073887;28;20028;-72
2022/08/03 04:34:53;;;;;;;18.00;13.90;;;;;;;;;;5087406;28;20036;-73
2022/08/03 04:37:39;;;;;;;20.75;17.10;;;;;;;;;;5073661;28;20067;-72
2022/08/03 04:40:10;;;;;;;15.73;9.77;;;;;;;;;;5073466;28;20016;-71
2022/08/03 04:42:37;;;;;;;13.23;10.68;;;;;;;;;;5073815;28;20452;-72
2022/08/03 04:45:04;;;;;;;15.45;11.55;;;;;;;;;;5073268;28;20052;-73
2022/08/03 04:47:32;;;;;;;7.75;6.30;;;;;;;;;;5073372;28;20086;-72
2022/08/03 04:49:58;;;;;;;10.52;6.35;;;;;;;;;;5073178;28;20089;-72
2022/08/03 04:52:24;;;;;;;9.95;5.88;;;;;;;;;;5073235;28;20421;-71
2022/08/03 04:54:51;;;;;;;8.65;5.05;;;;;;;;;;5073260;28;20020;-71
2022/08/03 04:57:18;;;;;;;6.82;5.20;;;;;;;;;;5073158;28;20364;-72
2022/08/03 04:59:44;;;;;;;7.90;5.03;;;;;;;;;;5073098;28;20027;-72
2022/08/03 05:02:10;;;;;;;8.77;5.20;;;;;;;;;;5072928;28;20494;-71
2022/08/03 05:04:39;;;;;;;13.40;5.55;;;;;;;;;;5073211;28;20078;-71
2022/08/03 05:07:05;;;;;;;7.18;5.85;;;;;;;;;;5073146;28;20055;-72
2022/08/03 05:09:31;;;;;;;9.35;5.25;;;;;;;;;;5073097;28;20024;-73
2022/08/03 05:11:57;;;;;;;8.55;5.00;;;;;;;;;;5072137;28;20029;-73
2022/08/03 05:14:23;;;;;;;7.18;5.63;;;;;;;;;;5072975;28;20104;-72
2022/08/03 05:16:49;;;;;;;11.23;5.15;;;;;;;;;;5072890;28;20031;-72
2022/08/03 05:19:16;;;;;;;8.82;5.50;;;;;;;;;;5072738;28;20025;-73
2022/08/03 05:21:42;;;;;;;9.88;5.63;;;;;;;;;;5073128;28;20052;-74
2022/08/03 05:24:08;;;;;;;6.65;5.40;;;;;;;;;;5072970;28;20029;-72
2022/08/03 05:26:34;;;;;;;7.57;6.32;;;;;;;;;;5072685;28;20036;-72
2022/08/03 05:29:00;;;;;;;6.03;5.43;;;;;;;;;;5072785;28;20111;-72
2022/08/03 05:31:26;;;;;;;8.05;4.82;;;;;;;;;;5072912;28;20020;-72
2022/08/03 05:33:52;;;;;;;7.32;5.60;;;;;;;;;;5081490;28;20473;-72
2022/08/03 05:36:18;;;;;;;10.75;6.15;;;;;;;;;;5077703;28;20128;-71
2022/08/03 05:38:44;;;;;;;8.07;6.05;;;;;;;;;;5072714;28;20475;-71
2022/08/03 05:41:10;;;;;;;14.55;11.90;;;;;;;;;;5072594;28;20027;-72
2022/08/03 05:43:36;;;;;;;13.32;9.40;;;;;;;;;;5072545;28;20021;-72
2022/08/03 05:46:03;;;;;;;8.57;5.72;;;;;;;;;;5072508;28;20036;-72
2022/08/03 05:48:29;;;;;;;13.25;11.35;;;;;;;;;;5072436;28;20048;-73
2022/08/03 05:50:55;;;;;;;8.88;5.60;;;;;;;;;;5072472;28;20123;-72
2022/08/03 05:53:21;;;;;;;7.45;6.40;;;;;;;;;;5072720;28;20029;-73
2022/08/03 05:55:47;;;;;;;11.27;6.78;;;;;;;;;;5072498;28;20013;-71
2022/08/03 05:58:13;;;;;;;10.15;6.22;;;;;;;;;;5072088;28;20091;-71
2022/08/03 06:00:39;;;;;;;8.63;6.50;;;;;;;;;;5072282;28;20367;-72
2022/08/03 06:03:05;;;;;;;9.20;6.35;;;;;;;;;;5072621;28;20032;-73
2022/08/03 06:05:35;;;;;;;10.15;5.53;;;;;;;;;;5072117;28;20555;-73
2022/08/03 06:08:01;;;;;;;11.43;7.78;;;;;;;;;;5072345;28;20115;-73
2022/08/03 06:10:27;;;;;;;7.45;5.70;;;;;;;;;;5072421;28;20029;-73
2022/08/03 06:12:53;;;;;;;7.43;4.97;;;;;;;;;;5072466;28;20056;-73
2022/08/03 06:15:19;;;;;;;7.88;5.38;;;;;;;;;;5072248;28;20028;-73
2022/08/03 06:17:46;;;;;;;6.78;4.90;;;;;;;;;;5072236;28;20116;-73
2022/08/03 06:20:12;;;;;;;6.22;4.72;;;;;;;;;;5072159;28;20500;-73
2022/08/03 06:22:38;;;;;;;11.57;5.13;;;;;;;;;;5072394;28;20023;-73
2022/08/03 06:25:05;;;;;;;11.13;6.43;;;;;;;;;;5074315;28;20108;-73
2022/08/03 06:27:31;;;;;;;7.47;4.90;;;;;;;;;;5075473;28;20463;-73
2022/08/03 06:29:57;;;;;;;7.82;5.03;;;;;;;;;;5075894;28;20024;-73
2022/08/03 06:32:23;;;;;;;8.63;5.68;;;;;;;;;;5075715;28;20048;-72
2022/08/03 06:34:49;;;;;;;8.38;5.90;;;;;;;;;;5089832;28;20078;-72
2022/08/03 06:37:15;;;;;;;9.50;5.32;;;;;;;;;;5075850;28;20048;-73
2022/08/03 06:39:41;;;;;;;13.55;6.63;;;;;;;;;;5075520;28;20025;-72
2022/08/03 06:42:07;;;;;;;7.03;5.32;;;;;;;;;;5076059;28;20020;-73
2022/08/03 06:44:34;;;;;;;10.07;6.93;;;;;;;;;;5075849;28;20028;-73
2022/08/03 06:47:00;;;;;;;6.40;5.07;;;;;;;;;;5075496;28;20033;-73
2022/08/03 06:49:26;;;;;;;8.60;5.43;;;;;;;;;;5075728;28;20017;-73
2022/08/03 06:51:52;;;;;;;8.18;5.07;;;;;;;;;;5075648;28;20383;-73
2022/08/03 06:54:21;;;;;;;6.07;5.13;;;;;;;;;;5075555;28;20017;-74
2022/08/03 06:56:47;;;;;;;10.90;8.40;;;;;;;;;;5075164;28;20028;-73
2022/08/03 06:59:13;;;;;;;11.75;5.97;;;;;;;;;;5075660;28;20047;-74
2022/08/03 07:01:39;;;;;;;9.70;5.63;;;;;;;;;;5075282;28;20032;-73
2022/08/03 07:04:05;;;;;;;6.50;5.78;;;;;;;;;;5075090;28;20023;-74
2022/08/03 07:06:31;;;;;;;11.65;6.18;;;;;;;;;;5075455;28;20090;-71
2022/08/03 07:08:58;;;;;;;8.05;6.15;;;;;;;;;;5075096;28;20017;-71
2022/08/03 07:11:24;;;;;;;9.00;7.47;;;;;;;;;;5075160;28;20032;-71
2022/08/03 07:13:50;;;;;;;7.35;5.95;;;;;;;;;;5074817;28;20498;-71
2022/08/03 07:16:16;;;;;;;7.47;5.45;;;;;;;;;;5075010;28;20383;-72
2022/08/03 07:18:42;;;;;;;6.63;5.45;;;;;;;;;;5074968;28;20021;-73
2022/08/03 07:21:09;;;;;;;6.22;5.63;;;;;;;;;;5074672;28;20112;-74
2022/08/03 07:23:35;;;;;;;10.02;5.85;;;;;;;;;;5086951;28;20020;-71
2022/08/03 07:26:02;;;;;;;11.70;6.43;;;;;;;;;;5076906;28;20035;-71
2022/08/03 07:28:28;;;;;;;8.38;6.30;;;;;;;;;;5074645;28;20032;-72
2022/08/03 07:30:54;;;;;;;7.50;5.78;;;;;;;;;;5074589;28;20016;-74
2022/08/03 07:33:20;;;;;;;12.23;6.32;;;;;;;;;;5078637;28;20024;-71
2022/08/03 07:35:46;;;;;;;6.93;5.95;;;;;;;;;;5083888;28;20118;-71
2022/08/03 07:38:12;;;;;;;9.65;5.90;;;;;;;;;;5074452;28;20095;-73
2022/08/03 07:40:38;;;;;;;7.05;5.38;;;;;;;;;;5083094;28;20039;-73
2022/08/03 07:43:04;;;;;;;6.88;4.85;;;;;;;;;;5080163;28;20025;-72
2022/08/03 07:45:30;;;;;;;11.13;5.75;;;;;;;;;;5074549;28;20069;-72
2022/08/03 07:47:56;;;;;;;7.50;5.40;;;;;;;;;;5074375;28;20561;-73
2022/08/03 07:50:23;;;;;;;13.63;6.18;;;;;;;;;;5074477;28;20024;-73
2022/08/03 07:52:51;;;;;;;7.55;5.05;;;;;;;;;;5074287;28;20021;-73
2022/08/03 07:55:21;;;;;;;6.43;5.80;;;;;;;;;;5074269;28;20028;-72
2022/08/03 07:57:58;;;;;;;9.98;6.35;;;;;;;;;;5074026;28;20020;-72
2022/08/03 08:00:24;;;;;;;5.25;4.65;;;;;;;;;;5074018;28;20023;-73
2022/08/03 08:02:50;;;;;;;8.13;6.05;;;;;;;;;;5074289;28;20035;-73
2022/08/03 08:05:16;;;;;;;7.53;4.85;;;;;;;;;;5073864;28;20390;-73
2022/08/03 08:07:43;;;;;;;8.40;5.82;;;;;;;;;;5073983;28;20390;-73
2022/08/03 08:10:09;;;;;;;7.35;6.65;;;;;;;;;;5073966;28;20471;-73
2022/08/03 08:12:36;;;;;;;7.38;5.55;;;;;;;;;;5073882;28;20390;-72
2022/08/03 08:15:02;;;;;;;7.10;5.35;;;;;;;;;;5074281;28;20424;-72
2022/08/03 08:17:29;;;;;;;7.38;5.40;;;;;;;;;;5073681;28;20012;-73
2022/08/03 08:19:55;;;;;;;9.98;6.03;;;;;;;;;;5073792;28;20052;-73
2022/08/03 08:22:21;;;;;;;9.23;6.38;;;;;;;;;;5073556;28;20016;-71
2022/08/03 08:24:47;;;;;;;6.10;5.35;;;;;;;;;;5073739;28;20029;-71
2022/08/03 08:27:14;;;;;;;7.85;5.15;;;;;;;;;;5073339;28;20072;-71
2022/08/03 08:29:40;;;;;;;5.47;4.97;;;;;;;;;;5073745;28;20025;-73
2022/08/03 08:32:06;;;;;;;6.40;5.13;;;;;;;;;;5073506;28;20379;-72
2022/08/03 08:34:32;;;;;;;6.85;5.05;;;;;;;;;;5087722;28;20055;-72
2022/08/03 08:36:58;;;;;;;5.65;5.13;;;;;;;;;;5073259;28;20154;-73
2022/08/03 08:39:24;;;;;;;11.13;5.80;;;;;;;;;;5073534;28;20414;-72
2022/08/03 08:41:51;;;;;;;6.53;5.30;;;;;;;;;;5073140;28;20020;-73
2022/08/03 08:44:17;;;;;;;6.15;4.85;;;;;;;;;;5073380;28;20075;-72
2022/08/03 08:46:44;;;;;;;6.68;5.15;;;;;;;;;;5071346;28;20044;-72
2022/08/03 08:49:12;;;;;;;7.97;6.03;;;;;;;;;;5071856;28;20025;-72
2022/08/03 08:51:39;;;;;;;6.55;5.18;;;;;;;;;;5071780;28;20027;-72
2022/08/03 08:54:08;;;;;;;9.35;5.05;;;;;;;;;;5073069;28;20017;-73
2022/08/03 08:56:35;;;;;;;5.30;4.38;;;;;;;;;;5072988;28;20021;-73
2022/08/03 08:59:02;;;;;;;6.55;5.10;;;;;;;;;;5073011;28;20047;-73
2022/08/03 09:01:28;;;;;;;6.15;4.50;;;;;;;;;;5073217;28;20036;-73
2022/08/03 09:03:55;;;;;;;7.32;4.88;;;;;;;;;;5072701;28;20087;-72
2022/08/03 09:06:21;;;;;;;5.80;4.55;;;;;;;;;;5072673;28;20033;-72
2022/08/03 09:08:48;;;;;;;12.80;5.22;;;;;;;;;;5073326;28;20046;-73
2022/08/03 09:11:14;;;;;;;5.25;4.43;;;;;;;;;;5072784;28;20065;-74
2022/08/03 09:13:40;;;;;;;6.68;4.82;;;;;;;;;;5073002;28;20374;-73
2022/08/03 09:16:13;;;;;;;6.45;4.00;;;;;;;;;;5072984;28;20020;-73
2022/08/03 09:18:39;;;;;;;8.60;4.30;;;;;;;;;;5072866;28;20028;-73
2022/08/03 09:21:19;;;;;;;7.90;5.40;;;;;;;;;;5072796;28;20026;-74
2022/08/03 09:23:45;;;;;;;6.20;4.50;;;;;;;;;;5073064;28;20123;-73
2022/08/03 09:26:12;;;;;;;5.25;4.50;;;;;;;;;;5072504;28;20050;-74
2022/08/03 09:28:38;;;;;;;6.05;4.28;;;;;;;;;;5072808;28;20025;-73
2022/08/03 09:31:04;;;;;;;8.00;4.22;;;;;;;;;;5072670;28;20019;-73
2022/08/03 09:33:30;;;;;;;15.93;5.57;;;;;;;;;;5078209;28;20024;-74
2022/08/03 09:35:57;;;;;;;5.00;4.47;;;;;;;;;;5081136;28;20091;-73
2022/08/03 09:38:24;;;;;;;6.90;4.95;;;;;;;;;;5072382;28;20056;-73
2022/08/03 09:40:51;;;;;;;8.02;4.97;;;;;;;;;;5072499;28;20020;-74
2022/08/03 09:43:17;;;;;;;6.82;3.90;;;;;;;;;;5072709;28;20095;-74
2022/08/03 09:45:43;;;;;;;4.95;4.07;;;;;;;;;;5072405;28;20086;-74
2022/08/03 09:48:25;;;;;;;6.68;4.40;;;;;;;;;;5072997;28;20032;-73
2022/08/03 09:50:52;;;;;;;4.68;3.92;;;;;;;;;;5072683;28;20032;-74
2022/08/03 09:53:19;;;;;;;6.50;4.97;;;;;;;;;;5072400;28;20023;-75
2022/08/03 09:55:52;;;;;;;6.13;3.97;;;;;;;;;;5072703;28;20062;-74
2022/08/03 09:58:20;;;;;;;4.35;3.90;;;;;;;;;;5073462;28;20469;-74
2022/08/03 10:00:53;;;;;;;6.05;3.78;;;;;;;;;;5076563;28;20024;-75
2022/08/03 10:03:19;;;;;;;6.43;4.00;;;;;;;;;;5076390;28;20081;-73
2022/08/03 10:05:45;;;;;;;5.30;3.90;;;;;;;;;;5076187;28;20032;-74
2022/08/03 10:08:15;;;;;;;5.80;4.25;;;;;;;;;;5076156;28;20039;-74
2022/08/03 10:10:46;;;;;;;4.82;3.78;;;;;;;;;;5076391;28;20458;-74
2022/08/03 10:13:12;;;;;;;;;;;;;;;;;;5076710;28;20025;-74
2022/08/03 10:15:39;;;;;;;4.55;3.83;;;;;;;;;;5076369;28;20373;-74
2022/08/03 10:18:05;;;;;;;7.00;4.30;;;;;;;;;;5076263;28;20025;-74
2022/08/03 10:20:32;;;;;;;6.60;3.95;;;;;;;;;;5075796;28;20024;-74
2022/08/03 10:22:59;;;;;;;4.70;4.25;;;;;;;;;;5075890;28;20036;-74
2022/08/03 10:25:25;;;;;;;6.07;4.95;;;;;;;;;;5075920;28;20017;-74
2022/08/03 10:27:52;;;;;;;6.43;4.60;;;;;;;;;;5076005;28;20123;-74
2022/08/03 10:30:18;;;;;;;5.68;3.90;;;;;;;;;;5075803;28;20021;-74
2022/08/03 10:32:48;;;;;;;4.13;3.72;;;;;;;;;;5075780;28;20352;-75
2022/08/03 10:35:15;;;;;;;4.78;3.88;;;;;;;;;;5089682;28;20406;-74
2022/08/03 10:37:42;;;;;;;5.25;4.15;;;;;;;;;;5075827;28;20493;-74
2022/08/03 10:40:12;;;;;;;4.35;3.95;;;;;;;;;;5074586;28;20418;-74
2022/08/03 10:42:40;;;;;;;7.00;4.18;;;;;;;;;;5075830;28;20111;-75
2022/08/03 10:45:08;;;;;;;7.13;4.38;;;;;;;;;;5074276;28;20068;-74
2022/08/03 10:47:34;;;;;;;4.80;4.03;;;;;;;;;;5074014;28;20068;-74
2022/08/03 10:50:01;;;;;;;4.72;3.75;;;;;;;;;;5075265;28;20031;-75
2022/08/03 10:52:27;;;;;;;6.15;4.35;;;;;;;;;;5075224;28;20078;-75
2022/08/03 10:57:46;;;;;;;4.32;3.92;;;;;;;;;;5075348;28;20116;-75
2022/08/03 11:00:13;;;;;;;4.85;4.30;;;;;;;;;;5075685;28;20031;-74
2022/08/03 11:02:57;;;;;;;4.38;3.97;;;;;;;;;;5075279;28;20073;-74
2022/08/03 11:05:27;;;;;;;8.75;4.40;;;;;;;;;;5075407;28;20032;-74
2022/08/03 11:08:12;;;;;;;5.85;3.83;;;;;;;;;;5075151;28;20091;-75
2022/08/03 11:10:38;;;;;;;4.60;3.80;;;;;;;;;;5074186;28;20095;-75
2022/08/03 11:13:08;;;;;;;4.15;3.75;;;;;;;;;;5075045;28;20027;-75
2022/08/03 11:15:35;;;;;;;5.60;3.67;;;;;;;;;;5074987;28;20056;-73
2022/08/03 11:18:11;;;;;;;5.65;4.03;;;;;;;;;;5075128;28;20070;-73
2022/08/03 11:21:03;;;;;;;16.48;15.15;;;;;;;;;;5074924;28;20107;-72
2022/08/03 11:23:43;;;;;;;10.43;4.47;;;;;;;;;;5072096;28;20044;-72
2022/08/03 11:26:13;;;;;;;6.35;4.85;;;;;;;;;;5074512;28;20028;-72
2022/08/03 11:28:39;;;;;;;5.90;4.45;;;;;;;;;;5074898;28;20077;-72
2022/08/03 11:31:24;;;;;;;3.83;3.40;;;;;;;;;;5074815;28;20017;-73
2022/08/03 11:34:06;;;;;;;3.95;3.55;;;;;;;;;;5082900;28;20102;-74
2022/08/03 11:36:50;;;;;;;5.57;4.30;;;;;;;;;;5076638;28;20064;-74
2022/08/03 11:39:17;;;;;;;6.70;5.00;;;;;;;;;;5074565;28;20091;-74
2022/08/03 11:41:43;;;;;;;6.82;3.70;;;;;;;;;;5074494;28;20537;-73
2022/08/03 11:44:09;;;;;;;6.63;4.28;;;;;;;;;;5074685;28;20016;-74
2022/08/03 11:46:37;;;;;;;4.88;4.35;;;;;;;;;;5074936;28;20032;-73
2022/08/03 11:49:08;;;;;;;5.80;4.70;;;;;;;;;;5074513;28;20485;-74
2022/08/03 11:51:34;;;;;;;4.65;4.05;;;;;;;;;;5074320;28;20029;-72
2022/08/03 11:54:02;;;;;;;3.95;3.55;;;;;;;;;;5074421;28;20020;-73
2022/08/03 11:56:28;;;;;;;5.38;3.88;;;;;;;;;;5074398;28;20390;-73
2022/08/03 11:58:56;;;;;;;5.13;4.30;;;;;;;;;;5074280;28;20016;-74
2022/08/03 12:01:23;;;;;;;4.75;3.97;;;;;;;;;;5074318;28;20487;-73
2022/08/03 12:03:49;;;;;;;6.90;4.95;;;;;;;;;;5074492;28;20093;-72
2022/08/03 12:06:16;;;;;;;6.43;5.03;;;;;;;;;;5074281;28;20124;-73
2022/08/03 12:08:42;;;;;;;8.25;4.68;;;;;;;;;;5073808;28;20028;-73
2022/08/03 12:11:10;;;;;;;6.05;4.35;;;;;;;;;;5073977;28;20024;-72
2022/08/03 12:13:37;;;;;;;4.40;4.00;;;;;;;;;;5073905;28;20024;-73
2022/08/03 12:16:03;;;;;;;5.68;4.07;;;;;;;;;;5073716;28;20028;-73
2022/08/03 12:18:29;;;;;;;4.40;4.00;;;;;;;;;;5073948;28;20028;-73
2022/08/03 12:21:03;;;;;;;5.25;3.95;;;;;;;;;;5073656;28;20016;-72
2022/08/03 12:23:29;;;;;;;5.57;4.85;;;;;;;;;;5073716;28;20035;-73
2022/08/03 12:26:01;;;;;;;7.63;4.15;;;;;;;;;;5073582;28;20024;-73
2022/08/03 12:28:27;;;;;;;4.82;3.95;;;;;;;;;;5073983;28;20032;-74
2022/08/03 12:30:53;;;;;;;4.45;4.05;;;;;;;;;;5073415;28;20055;-73
2022/08/03 12:33:22;;;;;;;6.50;4.32;;;;;;;;;;5077439;28;20028;-72
2022/08/03 12:36:08;;;;;;;5.18;3.40;;;;;;;;;;5083015;28;20056;-72
2022/08/03 12:38:36;;;;;;;5.35;4.10;;;;;;;;;;5073120;28;20117;-73
2022/08/03 12:41:07;;;;;;;4.63;4.22;;;;;;;;;;5073420;28;20052;-73
2022/08/03 12:43:33;;;;;;;;;;;;;;;;;;5073520;28;20359;-73
2022/08/03 12:46:15;;;;;;;4.15;3.58;;;;;;;;;;5073270;28;19968;-72
2022/08/03 12:49:00;;;;;;;8.02;4.80;;;;;;;;;;5073471;28;20032;-73
2022/08/03 12:51:27;;;;;;;4.80;4.00;;;;;;;;;;5073152;28;20371;-72
2022/08/03 12:53:53;;;;;;;5.82;4.68;;;;;;;;;;5072687;28;20467;-72
2022/08/03 12:56:19;;;;;;;5.00;4.43;;;;;;;;;;5071820;28;20032;-73
2022/08/03 12:58:46;;;;;;;5.00;4.53;;;;;;;;;;5072802;28;20017;-72
2022/08/03 13:01:13;;;;;;;6.68;4.28;;;;;;;;;;5072941;28;20052;-72
2022/08/03 13:03:43;;;;;;;6.68;4.55;;;;;;;;;;5072625;28;20030;-73
2022/08/03 13:06:16;;;;;;;4.72;4.22;;;;;;;;;;5072928;28;20102;-74
2022/08/03 13:08:43;;;;;;;5.53;4.93;;;;;;;;;;5072648;28;20391;-74
2022/08/03 13:11:19;;;;;;;5.03;4.53;;;;;;;;;;5071667;28;20438;-72
2022/08/03 13:13:45;;;;;;;6.47;4.97;;;;;;;;;;5072708;28;20021;-74
2022/08/03 13:16:11;;;;;;;6.03;5.00;;;;;;;;;;5072935;28;20108;-72
2022/08/03 13:18:37;;;;;;;6.60;5.80;;;;;;;;;;5072970;28;20025;-72
2022/08/03 13:21:03;;;;;;;4.55;4.15;;;;;;;;;;5072621;28;20055;-72
2022/08/03 13:23:29;;;;;;;8.77;5.57;;;;;;;;;;5072809;28;20043;-72
2022/08/03 13:25:56;;;;;;;8.60;5.10;;;;;;;;;;5072662;28;20028;-72
2022/08/03 13:28:22;;;;;;;6.07;5.30;;;;;;;;;;5072863;28;20029;-73
2022/08/03 13:30:48;;;;;;;5.82;4.75;;;;;;;;;;5072957;28;20020;-73
2022/08/03 13:33:14;;;;;;;5.55;5.05;;;;;;;;;;5075494;28;20107;-73
2022/08/03 13:35:40;;;;;;;4.97;4.57;;;;;;;;;;5092761;28;20040;-72
2022/08/03 13:38:06;;;;;;;5.13;4.63;;;;;;;;;;5077053;28;20475;-73
2022/08/03 13:40:33;;;;;;;5.60;5.10;;;;;;;;;;5072593;28;20390;-73
2022/08/03 13:42:59;;;;;;;7.03;5.47;;;;;;;;;;5072532;28;20510;-73
2022/08/03 13:45:26;;;;;;;7.55;5.45;;;;;;;;;;5070469;28;20037;-72
2022/08/03 13:47:52;;;;;;;8.57;5.47;;;;;;;;;;5072521;28;20036;-72
2022/08/03 13:50:18;;;;;;;8.10;7.35;;;;;;;;;;5072482;28;20101;-72
2022/08/03 13:52:47;;;;;;;7.20;6.53;;;;;;;;;;5072288;28;20033;-73
2022/08/03 13:55:13;;;;;;;6.70;5.65;;;;;;;;;;5072427;28;20467;-73
2022/08/03 13:57:39;;;;;;;6.10;5.47;;;;;;;;;;5072693;28;20036;-73
2022/08/03 14:00:06;;;;;;;6.13;5.57;;;;;;;;;;5072354;28;20093;-73
2022/08/03 14:02:32;;;;;;;7.65;5.32;;;;;;;;;;5072505;28;20035;-74
2022/08/03 14:04:58;;;;;;;6.85;6.30;;;;;;;;;;5072598;28;20067;-76
2022/08/03 14:07:24;;;;;;;8.88;6.75;;;;;;;;;;5072286;28;20394;-74
2022/08/03 14:09:50;;;;;;;6.93;6.07;;;;;;;;;;5072481;28;20012;-73
2022/08/03 14:12:16;;;;;;;7.45;5.90;;;;;;;;;;5072593;28;20364;-74
2022/08/03 14:14:42;;;;;;;7.13;6.43;;;;;;;;;;5072684;28;20048;-74
2022/08/03 14:17:08;;;;;;;6.78;5.93;;;;;;;;;;5072361;28;20048;-74
2022/08/03 14:19:35;;;;;;;7.30;6.60;;;;;;;;;;5072278;28;20032;-74
2022/08/03 14:22:01;;;;;;;6.78;6.18;;;;;;;;;;5072333;28;20035;-73
2022/08/03 14:24:27;;;;;;;7.32;6.22;;;;;;;;;;5072029;28;20029;-75
2022/08/03 14:26:53;;;;;;;9.15;6.78;;;;;;;;;;5072494;28;20063;-73
2022/08/03 14:29:19;;;;;;;6.82;5.97;;;;;;;;;;5072202;28;20025;-74
2022/08/03 14:31:45;;;;;;;6.68;6.07;;;;;;;;;;5072403;28;20090;-74
2022/08/03 14:34:11;;;;;;;6.32;5.72;;;;;;;;;;5083234;28;20027;-74
2022/08/03 14:36:37;;;;;;;7.88;7.07;;;;;;;;;;5074750;28;20044;-74
2022/08/03 14:39:03;;;;;;;6.97;5.90;;;;;;;;;;5071992;28;20497;-73
2022/08/03 14:41:30;;;;;;;7.78;6.25;;;;;;;;;;5072077;28;20078;-73
2022/08/03 14:43:56;;;;;;;7.55;6.85;;;;;;;;;;5072044;28;20020;-73
2022/08/03 14:46:22;;;;;;;7.00;6.40;;;;;;;;;;5074431;28;20459;-72
2022/08/03 14:48:49;;;;;;;7.63;6.93;;;;;;;;;;5075899;28;20055;-73
2022/08/03 14:51:15;;;;;;;9.55;7.20;;;;;;;;;;5075652;28;20425;-73
2022/08/03 14:53:41;;;;;;;7.45;6.75;;;;;;;;;;5075205;28;20047;-73
2022/08/03 14:56:10;;;;;;;7.95;7.15;;;;;;;;;;5075701;28;20016;-72
2022/08/03 14:58:36;;;;;;;8.70;6.68;;;;;;;;;;5075205;28;20028;-73